createdAt,value
2022-11-26T00:02:22.558Z,7.32
2022-11-26T00:04:51.248Z,7.07
2022-11-26T00:07:22.528Z,7.19
2022-11-26T00:09:50.887Z,7.01
2022-11-26T00:12:21.931Z,7.13
2022-11-26T00:14:51.622Z,7.20
2022-11-26T00:17:20.386Z,6.95
2022-11-26T00:19:48.888Z,7.00
2022-11-26T00:22:24.453Z,7.39
2022-11-26T00:24:53.686Z,7.12
2022-11-26T00:27:22.652Z,7.07
2022-11-26T00:29:52.122Z,7.06
2022-11-26T00:32:23.733Z,7.20
2022-11-26T00:34:52.027Z,6.84
2022-11-26T00:37:22.533Z,7.10
2022-11-26T00:39:50.911Z,6.86
2022-11-26T00:42:19.756Z,6.96
2022-11-26T00:44:47.885Z,6.86
2022-11-26T00:47:17.616Z,7.14
2022-11-26T00:49:45.652Z,6.85
2022-11-26T00:52:23.791Z,7.36
2022-11-26T00:54:51.990Z,6.84
2022-11-26T00:57:20.397Z,6.82
2022-11-26T00:59:48.512Z,6.77
2022-11-26T01:02:18.178Z,6.95
2022-11-26T01:04:46.317Z,6.69
2022-11-26T01:07:14.795Z,6.61
2022-11-26T01:09:44.030Z,6.77
2022-11-26T01:12:14.028Z,6.81
2022-11-26T01:14:42.099Z,6.46
2022-11-26T01:17:12.466Z,6.76
2022-11-26T01:19:42.033Z,6.75
2022-11-26T01:22:20.987Z,6.88
2022-11-26T01:24:50.002Z,6.48
2022-11-26T01:27:20.904Z,6.60
2022-11-26T01:29:49.100Z,6.21
2022-11-26T01:32:17.456Z,6.12
2022-11-26T01:34:46.836Z,6.45
2022-11-26T01:37:15.523Z,6.14
2022-11-26T01:39:43.572Z,6.08
2022-11-26T01:42:23.238Z,6.51
2022-11-26T01:44:51.237Z,5.97
2022-11-26T01:47:23.292Z,6.29
2022-11-26T01:50:29.013Z,6.63
2022-11-26T01:53:02.516Z,6.27
2022-11-26T01:55:43.499Z,6.21
2022-11-26T01:58:14.486Z,6.14
2022-11-26T02:00:42.816Z,5.84
2022-11-26T02:03:11.539Z,5.73
2022-11-26T02:05:43.645Z,6.05
2022-11-26T02:08:13.782Z,5.99
2022-11-26T02:10:41.985Z,5.53
2022-11-26T02:13:10.373Z,5.55
2022-11-26T02:15:44.551Z,6.01
2022-11-26T02:18:13.343Z,5.71
2022-11-26T02:20:51.808Z,6.13
2022-11-26T02:23:43.640Z,6.26
2022-11-26T02:27:05.474Z,6.28
2022-11-26T02:29:51.635Z,6.24
2022-11-26T02:32:22.188Z,5.88
2022-11-26T02:34:56.060Z,5.96
2022-11-26T02:37:27.112Z,5.84
2022-11-26T02:39:55.274Z,6.29
2022-11-26T02:42:26.637Z,5.78
2022-11-26T02:44:59.096Z,5.69
2022-11-26T02:47:28.557Z,5.46
2022-11-26T02:49:58.636Z,5.50
2022-11-26T02:52:28.764Z,5.49
2022-11-26T02:54:58.422Z,5.26
2022-11-26T02:57:29.188Z,5.24
2022-11-26T02:59:59.179Z,5.29
2022-11-26T03:02:30.604Z,5.36
2022-11-26T03:05:01.619Z,5.29
2022-11-26T03:07:30.703Z,5.11
2022-11-26T03:10:00.715Z,5.29
2022-11-26T03:12:29.028Z,5.01
2022-11-26T03:14:59.050Z,5.30
2022-11-26T03:17:27.190Z,5.02
2022-11-26T03:19:55.608Z,4.90
2022-11-26T03:22:23.566Z,4.96
2022-11-26T03:24:51.941Z,4.93
2022-11-26T03:27:20.049Z,4.96
2022-11-26T03:29:48.496Z,5.00
2022-11-26T03:32:18.141Z,5.34
2022-11-26T03:34:46.658Z,4.96
2022-11-26T03:37:14.991Z,4.93
2022-11-26T03:39:43.515Z,5.00
2022-11-26T03:42:12.080Z,4.91
2022-11-26T03:44:40.750Z,4.80
2022-11-26T03:47:08.905Z,4.73
2022-11-26T03:49:38.785Z,5.08
2022-11-26T03:52:06.781Z,4.75
2022-11-26T03:54:35.383Z,4.79
2022-11-26T03:57:03.588Z,4.64
2022-11-26T03:59:32.003Z,4.72
2022-11-26T04:02:00.105Z,4.63
2022-11-26T04:04:28.438Z,4.67
2022-11-26T04:06:57.940Z,4.94
2022-11-26T04:09:26.398Z,4.54
2022-11-26T04:11:54.494Z,4.53
2022-11-26T04:14:23.264Z,4.62
2022-11-26T04:16:51.467Z,4.42
2022-11-26T04:19:19.965Z,4.26
2022-11-26T04:21:47.987Z,4.15
2022-11-26T04:24:17.825Z,4.38
2022-11-26T04:26:45.904Z,4.00
2022-11-26T04:29:14.327Z,3.98
2022-11-26T04:31:42.395Z,3.79
2022-11-26T04:34:11.071Z,3.89
2022-11-26T04:36:39.598Z,3.87
2022-11-26T04:39:08.084Z,4.03
2022-11-26T04:41:37.552Z,4.37
2022-11-26T04:44:06.286Z,4.27
2022-11-26T04:46:34.355Z,4.18
2022-11-26T04:49:02.623Z,4.17
2022-11-26T04:51:30.811Z,4.17
2022-11-26T04:54:02.759Z,4.22
2022-11-26T04:56:31.367Z,3.64
2022-11-26T04:59:01.126Z,4.41
2022-11-26T05:01:29.249Z,4.55
2022-11-26T05:03:57.806Z,4.75
2022-11-26T05:06:25.901Z,4.85
2022-11-26T05:08:54.334Z,4.97
2022-11-26T05:11:22.359Z,5.10
2022-11-26T05:13:50.756Z,5.12
2022-11-26T05:16:20.393Z,5.43
2022-11-26T05:18:48.723Z,5.19
2022-11-26T05:21:16.795Z,5.18
2022-11-26T05:23:45.137Z,5.15
2022-11-26T05:26:13.401Z,5.11
2022-11-26T05:28:41.710Z,5.14
2022-11-26T05:31:09.959Z,5.22
2022-11-26T05:33:39.788Z,5.56
2022-11-26T05:36:08.261Z,5.39
2022-11-26T05:38:36.583Z,5.42
2022-11-26T05:41:04.944Z,5.61
2022-11-26T05:43:33.325Z,5.50
2022-11-26T05:46:05.130Z,5.97
2022-11-26T05:48:33.585Z,5.61
2022-11-26T05:51:03.661Z,5.99
2022-11-26T05:53:31.998Z,5.74
2022-11-26T05:56:00.153Z,5.74
2022-11-26T05:58:28.495Z,5.69
2022-11-26T06:00:56.580Z,5.74
2022-11-26T06:03:25.117Z,5.89
2022-11-26T06:05:53.276Z,5.91
2022-11-26T06:08:23.041Z,6.25
2022-11-26T06:10:54.070Z,6.13
2022-11-26T06:13:22.602Z,5.84
2022-11-26T06:15:52.007Z,5.84
2022-11-26T06:18:20.360Z,5.80
2022-11-26T06:20:48.540Z,5.92
2022-11-26T06:23:17.009Z,5.96
2022-11-26T06:25:46.589Z,6.32
2022-11-26T06:28:15.114Z,6.03
2022-11-26T06:30:45.384Z,6.37
2022-11-26T06:33:13.767Z,6.02
2022-11-26T06:35:41.891Z,6.04
2022-11-26T06:38:10.399Z,5.99
2022-11-26T06:40:38.726Z,6.05
2022-11-26T06:43:08.583Z,6.41
2022-11-26T06:45:36.741Z,6.19
2022-11-26T06:48:05.313Z,6.15
2022-11-26T06:50:33.526Z,6.26
2022-11-26T06:53:01.975Z,6.31
2022-11-26T06:55:30.133Z,6.35
2022-11-26T06:57:58.557Z,6.49
2022-11-26T07:00:28.179Z,6.90
2022-11-26T07:02:56.510Z,6.59
2022-11-26T07:05:24.674Z,6.69
2022-11-26T07:07:53.128Z,6.73
2022-11-26T07:10:21.378Z,6.72
2022-11-26T07:12:49.672Z,6.75
2022-11-26T07:15:17.956Z,6.76
2022-11-26T07:17:47.616Z,7.08
2022-11-26T07:20:16.124Z,6.89
2022-11-26T07:22:44.659Z,6.88
2022-11-26T07:25:13.112Z,6.88
2022-11-26T07:27:41.815Z,6.81
2022-11-26T07:30:10.971Z,7.07
2022-11-26T07:32:39.492Z,7.04
2022-11-26T07:35:09.407Z,7.41
2022-11-26T07:37:37.808Z,7.10
2022-11-26T07:40:07.839Z,7.43
2022-11-26T07:42:36.445Z,7.12
2022-11-26T07:45:04.973Z,7.10
2022-11-26T07:47:33.476Z,7.06
2022-11-26T07:50:01.745Z,7.11
2022-11-26T07:52:31.564Z,7.39
2022-11-26T07:54:59.627Z,7.24
2022-11-26T07:57:28.032Z,7.22
2022-11-26T07:59:56.105Z,7.17
2022-11-26T08:02:24.703Z,7.23
2022-11-26T08:04:53.660Z,7.18
2022-11-26T08:07:26.123Z,7.32
2022-11-26T08:09:58.484Z,7.62
2022-11-26T08:12:27.397Z,7.53
2022-11-26T08:14:55.387Z,7.55
2022-11-26T08:17:23.756Z,7.60
2022-11-26T08:19:51.819Z,7.67
2022-11-26T08:22:20.290Z,7.73
2022-11-26T08:24:48.363Z,7.95
2022-11-26T08:27:18.584Z,8.15
2022-11-26T08:29:46.709Z,7.92
2022-11-26T08:32:15.114Z,7.82
2022-11-26T08:34:43.380Z,7.87
2022-11-26T08:37:11.682Z,7.77
2022-11-26T08:39:40.128Z,7.81
2022-11-26T08:42:08.473Z,7.66
2022-11-26T08:44:38.196Z,7.81
2022-11-26T08:47:06.750Z,7.49
2022-11-26T08:49:34.793Z,7.45
2022-11-26T08:52:03.279Z,7.42
2022-11-26T08:54:31.358Z,7.40
2022-11-26T08:56:59.864Z,7.22
2022-11-26T08:59:27.910Z,7.12
2022-11-26T09:01:57.685Z,7.53
2022-11-26T09:04:28.472Z,7.21
2022-11-26T09:06:56.984Z,7.25
2022-11-26T09:09:25.383Z,7.31
2022-11-26T09:11:55.151Z,7.47
2022-11-26T09:14:25.697Z,7.47
2022-11-26T09:16:54.736Z,7.40
2022-11-26T09:19:25.247Z,7.59
2022-11-26T09:21:53.589Z,7.15
2022-11-26T09:24:23.172Z,7.33
2022-11-26T09:26:51.504Z,7.14
2022-11-26T09:29:21.673Z,7.36
2022-11-26T09:32:21.257Z,7.31
2022-11-26T09:34:40.423Z,7.53
2022-11-26T09:37:09.193Z,7.26
2022-11-26T09:39:37.211Z,7.36
2022-11-26T09:42:07.276Z,7.61
2022-11-26T09:44:51.150Z,8.00
2022-11-26T09:47:22.383Z,7.63
2022-11-26T09:50:01.108Z,7.94
2022-11-26T09:52:32.197Z,7.91
2022-11-26T09:55:06.974Z,8.02
2022-11-26T09:57:41.351Z,7.87
2022-11-26T10:00:21.840Z,8.22
2022-11-26T10:02:53.543Z,8.08
2022-11-26T10:05:24.992Z,8.26
2022-11-26T10:08:04.472Z,8.46
2022-11-26T10:10:39.859Z,8.50
2022-11-26T10:13:19.436Z,8.58
2022-11-26T10:15:56.315Z,8.53
2022-11-26T10:18:34.221Z,8.51
2022-11-26T10:21:13.961Z,8.43
2022-11-26T10:23:45.608Z,8.23
2022-11-26T10:26:14.076Z,8.73
2022-11-26T10:28:46.602Z,8.17
2022-11-26T10:31:21.154Z,8.17
2022-11-26T10:33:56.079Z,8.15
2022-11-26T10:36:27.828Z,8.10
2022-11-26T10:38:57.370Z,7.77
2022-11-26T10:41:28.142Z,8.13
2022-11-26T10:43:56.460Z,7.84
2022-11-26T10:46:35.556Z,8.48
2022-11-26T10:49:18.046Z,8.57
2022-11-26T10:51:49.560Z,8.35
2022-11-26T10:54:29.835Z,8.50
2022-11-26T10:57:03.693Z,8.40
2022-11-26T10:59:36.551Z,8.45
2022-11-26T11:02:14.148Z,8.43
2022-11-26T11:04:46.158Z,8.41
2022-11-26T11:07:32.824Z,8.58
2022-11-26T11:10:06.539Z,8.41
2022-11-26T11:12:34.776Z,8.02
2022-11-26T11:15:22.046Z,8.69
2022-11-26T11:17:57.021Z,8.49
2022-11-26T11:20:31.205Z,8.54
2022-11-26T11:23:04.253Z,8.44
2022-11-26T11:25:34.484Z,8.27
2022-11-26T11:28:11.770Z,8.45
2022-11-26T11:30:42.293Z,8.43
2022-11-26T11:33:13.152Z,8.47
2022-11-26T11:35:41.828Z,8.23
2022-11-26T11:38:23.676Z,8.85
2022-11-26T11:40:52.301Z,8.36
2022-11-26T11:43:22.693Z,8.55
2022-11-26T11:46:15.075Z,8.83
2022-11-26T11:48:51.715Z,8.76
2022-11-26T11:51:26.031Z,8.75
2022-11-26T11:54:03.858Z,8.77
2022-11-26T11:56:36.702Z,8.70
2022-11-26T11:59:18.056Z,8.88
2022-11-26T12:02:05.049Z,8.92
2022-11-26T12:04:52.242Z,8.88
2022-11-26T12:07:33.165Z,8.64
2022-11-26T12:10:08.047Z,8.72
2022-11-26T12:12:38.089Z,8.60
2022-11-26T12:15:10.037Z,8.75
2022-11-26T12:17:41.536Z,8.75
2022-11-26T12:20:21.254Z,8.92
2022-11-26T12:22:53.065Z,8.78
2022-11-26T12:25:33.554Z,8.94
2022-11-26T12:28:07.067Z,8.79
2022-11-26T12:30:42.069Z,8.91
2022-11-26T12:33:16.182Z,9.04
2022-11-26T12:35:47.169Z,8.97
2022-11-26T12:38:20.178Z,9.20
2022-11-26T12:40:54.269Z,9.31
2022-11-26T12:43:27.905Z,9.28
2022-11-26T12:45:59.838Z,9.24
2022-11-26T12:48:42.813Z,9.58
2022-11-26T12:51:21.353Z,9.57
2022-11-26T12:53:53.761Z,9.59
2022-11-26T12:56:27.255Z,9.70
2022-11-26T12:59:00.980Z,9.71
2022-11-26T13:01:29.619Z,9.54
2022-11-26T13:04:21.609Z,9.65
2022-11-26T13:06:56.276Z,10.02
2022-11-26T13:09:36.294Z,10.14
2022-11-26T13:12:10.962Z,10.20
2022-11-26T13:14:43.219Z,10.10
2022-11-26T13:17:14.080Z,10.05
2022-11-26T13:19:45.000Z,9.96
2022-11-26T13:22:34.491Z,10.26
2022-11-26T13:25:20.987Z,10.06
2022-11-26T13:27:56.697Z,10.04
2022-11-26T13:30:27.852Z,9.79
2022-11-26T13:33:28.938Z,10.04
2022-11-26T13:36:17.027Z,10.03
2022-11-26T13:38:53.233Z,9.82
2022-11-26T13:41:27.993Z,9.62
2022-11-26T13:44:21.943Z,9.75
2022-11-26T13:46:52.412Z,9.41
2022-11-26T13:49:25.785Z,9.52
2022-11-26T13:51:57.064Z,9.42
2022-11-26T13:54:28.280Z,9.50
2022-11-26T13:57:00.034Z,9.50
2022-11-26T13:59:29.317Z,9.96
2022-11-26T14:01:57.932Z,9.04
2022-11-26T14:04:54.783Z,9.69
2022-11-26T14:07:23.683Z,9.02
2022-11-26T14:09:54.580Z,9.34
2022-11-26T14:12:24.136Z,9.13
2022-11-26T14:14:53.838Z,9.19
2022-11-26T14:17:28.972Z,9.21
2022-11-26T14:20:07.409Z,9.01
2022-11-26T14:22:37.060Z,9.01
2022-11-26T14:25:08.118Z,9.11
2022-11-26T14:27:37.007Z,9.66
2022-11-26T14:30:28.223Z,9.40
2022-11-26T14:33:05.774Z,9.18
2022-11-26T14:35:35.997Z,8.97
2022-11-26T14:38:05.830Z,8.81
2022-11-26T14:40:35.982Z,8.91
2022-11-26T14:43:09.269Z,9.05
2022-11-26T14:45:38.826Z,8.86
2022-11-26T14:48:07.295Z,8.58
2022-11-26T14:50:37.528Z,8.96
2022-11-26T14:53:07.858Z,8.99
2022-11-26T14:55:36.248Z,8.65
2022-11-26T14:58:09.579Z,8.79
2022-11-26T15:00:39.526Z,8.85
2022-11-26T15:03:20.578Z,9.12
2022-11-26T15:05:48.793Z,8.50
2022-11-26T15:08:19.407Z,8.77
2022-11-26T15:10:51.225Z,8.99
2022-11-26T15:13:25.767Z,8.94
2022-11-26T15:15:56.635Z,9.02
2022-11-26T15:18:32.214Z,9.06
2022-11-26T15:21:02.062Z,8.92
2022-11-26T15:23:32.951Z,8.96
2022-11-26T15:26:01.430Z,8.65
2022-11-26T15:28:30.097Z,8.67
2022-11-26T15:31:01.285Z,8.91
2022-11-26T15:33:32.128Z,8.91
2022-11-26T15:36:00.414Z,8.60
2022-11-26T15:38:30.425Z,8.81
2022-11-26T15:41:02.032Z,8.83
2022-11-26T15:43:31.966Z,8.81
2022-11-26T15:46:03.811Z,8.80
2022-11-26T15:48:51.656Z,8.87
2022-11-26T15:51:24.942Z,8.83
2022-11-26T15:53:53.464Z,8.47
2022-11-26T15:56:24.215Z,8.79
2022-11-26T15:58:55.448Z,8.84
2022-11-26T16:01:28.325Z,8.88
2022-11-26T16:03:57.562Z,8.61
2022-11-26T16:06:31.674Z,8.78
2022-11-26T16:09:03.407Z,8.66
2022-11-26T16:11:34.480Z,8.44
2022-11-26T16:14:24.799Z,8.84
2022-11-26T16:16:54.449Z,8.47
2022-11-26T16:19:23.113Z,8.12
2022-11-26T16:21:52.357Z,8.27
2022-11-26T16:24:29.557Z,8.51
2022-11-26T16:26:58.956Z,8.04
2022-11-26T16:29:28.010Z,7.86
2022-11-26T16:31:57.887Z,8.12
2022-11-26T16:34:28.015Z,7.98
2022-11-26T16:37:01.964Z,8.17
2022-11-26T16:39:33.789Z,7.88
2022-11-26T16:42:09.804Z,8.04
2022-11-26T16:44:38.692Z,7.75
2022-11-26T16:47:11.246Z,8.18
2022-11-26T16:49:39.816Z,7.74
2022-11-26T16:52:12.624Z,8.13
2022-11-26T16:54:41.324Z,7.82
2022-11-26T16:57:13.598Z,8.15
2022-11-26T16:59:43.063Z,7.83
2022-11-26T17:02:17.754Z,8.15
2022-11-26T17:04:46.942Z,7.68
2022-11-26T17:07:16.917Z,7.81
2022-11-26T17:09:45.532Z,7.64
2022-11-26T17:12:17.510Z,7.91
2022-11-26T17:14:46.661Z,7.62
2022-11-26T17:17:20.522Z,7.79
2022-11-26T17:19:52.292Z,7.44
2022-11-26T17:22:20.346Z,7.34
2022-11-26T17:24:50.923Z,7.36
2022-11-26T17:27:21.132Z,7.51
2022-11-26T17:29:49.846Z,7.27
2022-11-26T17:32:20.584Z,7.60
2022-11-26T17:34:49.122Z,7.25
2022-11-26T17:37:23.815Z,7.64
2022-11-26T17:39:52.454Z,7.23
2022-11-26T17:42:21.871Z,7.18
2022-11-26T17:44:50.473Z,7.23
2022-11-26T17:47:21.414Z,7.50
2022-11-26T17:49:50.371Z,7.10
2022-11-26T17:52:18.798Z,7.16
2022-11-26T17:54:47.812Z,7.28
2022-11-26T17:57:16.840Z,7.33
2022-11-26T17:59:46.015Z,7.24
2022-11-26T18:02:14.317Z,7.12
2022-11-26T18:04:44.119Z,7.39
2022-11-26T18:07:14.756Z,7.49
2022-11-26T18:09:43.594Z,7.28
2022-11-26T18:12:23.186Z,7.70
2022-11-26T18:14:53.605Z,7.21
2022-11-26T18:17:22.144Z,7.34
2022-11-26T18:19:52.470Z,7.51
2022-11-26T18:22:23.020Z,7.44
2022-11-26T18:24:57.044Z,7.10
2022-11-26T18:27:27.860Z,7.32
2022-11-26T18:29:56.315Z,7.13
2022-11-26T18:32:24.547Z,7.14
2022-11-26T18:34:54.342Z,7.42
2022-11-26T18:37:22.570Z,7.18
2022-11-26T18:39:50.968Z,7.14
2022-11-26T18:45:10.210Z,7.29
2022-11-26T18:47:38.786Z,7.17
2022-11-26T18:50:10.132Z,7.41
2022-11-26T18:52:38.928Z,6.95
2022-11-26T18:55:08.836Z,7.07
2022-11-26T18:57:37.082Z,7.01
2022-11-26T19:00:07.181Z,7.17
2022-11-26T19:02:36.226Z,6.97
2022-11-26T19:05:04.892Z,6.94
2022-11-26T19:07:34.976Z,7.19
2022-11-26T19:10:03.193Z,6.81
2022-11-26T19:12:31.876Z,6.77
2022-11-26T19:15:00.028Z,6.79
2022-11-26T19:17:28.492Z,6.78
2022-11-26T19:19:56.637Z,6.84
2022-11-26T19:22:25.079Z,6.88
2022-11-26T19:24:54.706Z,7.11
2022-11-26T19:27:23.161Z,6.87
2022-11-26T19:29:51.453Z,6.95
2022-11-26T19:32:20.183Z,6.99
2022-11-26T19:34:48.220Z,6.95
2022-11-26T19:37:16.858Z,7.01
2022-11-26T19:39:45.185Z,6.97
2022-11-26T19:42:15.935Z,7.29
2022-11-26T19:44:44.162Z,6.96
2022-11-26T19:47:12.723Z,6.85
2022-11-26T19:49:41.134Z,6.94
2022-11-26T19:52:09.952Z,6.87
2022-11-26T19:54:38.099Z,6.89
2022-11-26T19:57:07.300Z,6.94
2022-11-26T19:59:37.165Z,7.22
2022-11-26T20:02:06.397Z,6.98
2022-11-26T20:04:34.528Z,6.85
2022-11-26T20:07:03.292Z,6.95
2022-11-26T20:09:31.506Z,6.95
2022-11-26T20:12:00.149Z,6.97
2022-11-26T20:14:28.559Z,7.08
2022-11-26T20:17:01.063Z,7.34
2022-11-26T20:19:29.979Z,7.07
2022-11-26T20:22:01.515Z,7.46
2022-11-26T20:24:30.064Z,7.05
2022-11-26T20:27:00.904Z,7.39
2022-11-26T20:29:29.176Z,7.09
2022-11-26T20:31:59.835Z,7.32
2022-11-26T20:34:30.062Z,7.09
2022-11-26T20:36:58.676Z,7.04
2022-11-26T20:39:28.794Z,7.04
2022-11-26T20:41:57.383Z,7.00
2022-11-26T20:44:26.979Z,6.97
2022-11-26T20:46:57.417Z,6.93
2022-11-26T20:49:32.203Z,7.13
2022-11-26T20:52:02.964Z,6.83
2022-11-26T20:54:31.551Z,6.86
2022-11-26T20:57:00.492Z,7.01
2022-11-26T20:59:29.114Z,6.85
2022-11-26T21:01:58.158Z,6.66
2022-11-26T21:04:28.737Z,6.93
2022-11-26T21:06:57.910Z,6.65
2022-11-26T21:09:26.313Z,6.56
2022-11-26T21:11:54.820Z,6.41
2022-11-26T21:14:22.975Z,6.38
2022-11-26T21:16:53.952Z,6.23
2022-11-26T21:19:22.247Z,6.25
2022-11-26T21:21:52.286Z,6.52
2022-11-26T21:24:21.521Z,6.29
2022-11-26T21:26:50.033Z,6.22
2022-11-26T21:29:18.273Z,6.16
2022-11-26T21:31:46.722Z,6.25
2022-11-26T21:34:15.793Z,6.42
2022-11-26T21:36:45.159Z,6.31
2022-11-26T21:39:16.777Z,6.75
2022-11-26T21:41:45.641Z,6.50
2022-11-26T21:44:13.924Z,6.39
2022-11-26T21:46:42.385Z,6.45
2022-11-26T21:49:10.836Z,6.45
2022-11-26T21:51:39.490Z,6.46
2022-11-26T21:54:07.723Z,6.40
2022-11-26T21:56:38.641Z,6.71
2022-11-26T21:59:06.755Z,6.34
2022-11-26T22:01:37.276Z,6.55
2022-11-26T22:04:11.835Z,6.61
2022-11-26T22:06:40.575Z,6.22
2022-11-26T22:09:09.532Z,6.29
2022-11-26T22:11:42.274Z,6.56
2022-11-26T22:14:12.819Z,6.57
2022-11-26T22:16:41.386Z,6.36
2022-11-26T22:19:09.999Z,6.31
2022-11-26T22:21:40.611Z,6.55
2022-11-26T22:24:11.532Z,6.47
2022-11-26T22:26:41.508Z,6.56
2022-11-26T22:29:11.499Z,6.59
2022-11-26T22:31:40.118Z,6.35
2022-11-26T22:34:11.233Z,6.43
2022-11-26T22:36:40.762Z,6.29
2022-11-26T22:39:12.306Z,6.42
2022-11-26T22:41:43.236Z,6.49
2022-11-26T22:44:12.048Z,6.34
2022-11-26T22:46:40.386Z,6.18
2022-11-26T22:49:11.569Z,6.37
2022-11-26T22:51:39.891Z,7.04
2022-11-26T22:54:09.605Z,6.49
2022-11-26T22:56:39.050Z,6.40
2022-11-26T22:59:11.789Z,6.59
2022-11-26T23:01:40.211Z,6.24
2022-11-26T23:04:09.941Z,6.52
2022-11-26T23:06:38.885Z,6.40
2022-11-26T23:09:08.853Z,6.44
2022-11-26T23:11:39.072Z,6.43
2022-11-26T23:14:12.089Z,6.41
2022-11-26T23:16:42.459Z,6.53
2022-11-26T23:19:11.380Z,6.32
2022-11-26T23:21:41.814Z,6.50
2022-11-26T23:24:10.232Z,6.33
2022-11-26T23:26:39.925Z,6.55
2022-11-26T23:29:09.884Z,6.58
2022-11-26T23:31:41.099Z,6.59
2022-11-26T23:34:10.366Z,6.46
2022-11-26T23:36:39.425Z,6.42
2022-11-26T23:39:08.731Z,6.38
2022-11-26T23:41:37.832Z,6.33
2022-11-26T23:44:06.353Z,6.26
2022-11-26T23:46:36.537Z,6.60
2022-11-26T23:49:05.237Z,6.49
2022-11-26T23:51:34.442Z,6.45
2022-11-26T23:54:02.508Z,6.25
2022-11-26T23:56:34.710Z,6.65
2022-11-26T23:59:04.424Z,6.45
